• Join FlightAware (Why Join?)
  • Login
  • US Flag 
02:41AM EDT


 

Airport Tracker/Info


-or-


 

Live Flight TrackerFlight Track Log ✈ EJA809 ✈ 07-Oct-2013 ✈ KCAK - KCMH

Flight Track Log - Related Links

Times and Time Zones

All times are in EDT time to prevent confusion due to time zone crossing. See the EJA809 flight status page for this flight to view local times or setup timezone preferences in your user account.

Time Position Orientation Groundspeed Altitude Reporting Facility
EDT Latitude Longitude Course Direction KTS MPH feet Rate Location/Type
06:59PM 40.8450 -81.5406 225° Southwest 234 269 5,900  Level Cleveland Center
07:00PM 40.7889 -81.6089 223° Southwest 266 306 7,900 1,080 Climbing Cleveland Center
07:01PM 40.7428 -81.6811 230° Southwest 256 295 8,200 1,020 Climbing Cleveland Center
07:02PM 40.6922 -81.7592 230° Southwest 273 314 10,100 1,740 Climbing Cleveland Center
07:03PM 40.6394 -81.8419 230° Southwest 289 333 11,900 900 Climbing Cleveland Center
07:04PM 40.5733 -81.9411 229° Southwest 304 350 12,000  Climbing Cleveland Center
07:05PM 40.5153 -82.0306 230° Southwest 315 362 12,000  Level Cleveland Center
07:06PM 40.4600 -82.1206 231° Southwest 319 367 12,000 -180 Level Indianapolis Center
07:06PM 40.4486 -82.1361 226° Southwest 315 362 11,800 -1,200 Descending Indianapolis Center
07:07PM 40.4289 -82.1653 228° Southwest 316 364 11,400 -780 Descending Indianapolis Center
07:07PM 40.3914 -82.2239 230° Southwest 313 360 11,000 -420 Descending Indianapolis Center
07:08PM 40.3731 -82.2531 230° Southwest 310 357 11,000 -420 Level Indianapolis Center
07:08PM 40.3331 -82.3092 227° Southwest 311 358 10,600 -600 Descending Indianapolis Center
07:09PM 40.3131 -82.3372 227° Southwest 316 364 10,400 -840 Descending Indianapolis Center
07:09PM 40.2494 -82.3417 183° South 339 390 9,800 -900 Descending Indianapolis Center
07:09PM 40.2283 -82.3436 184° South 338 389 9,600 -1,080 Descending Indianapolis Center
07:10PM 40.1561 -82.3383 177° South 323 372 8,700 -1,020 Descending Indianapolis Center
07:11PM 40.1408 -82.3383 180° South 307 353 8,600 -720 Descending Indianapolis Center
07:11PM 40.0808 -82.3617 197° South 283 326 8,000 -720 Descending Indianapolis Center
07:12PM 40.0647 -82.3678 196° South 278 320 7,900 -720 Descending Indianapolis Center
07:12PM 40.0183 -82.4097 215° Southwest 277 319 7,300 -720 Descending Indianapolis Center
07:13PM 40.0042 -82.4350 234° Southwest 254 292 7,100 -1,080 Descending Indianapolis Center
07:14PM 39.9761 -82.5128 245° Southwest 241 277 6,000 -1,200 Descending Indianapolis Center
07:14PM 39.9811 -82.5681 277° West 241 277 4,900 -1,560 Descending Indianapolis Center
07:15PM 39.9872 -82.5964 286° West 238 274 4,400 -1,800 Descending Indianapolis Center
07:15PM 39.9903 -82.6531 274° West 239 275 3,100 -1,320 Descending Indianapolis Center
07:16PM 39.9908 -82.6925 271° West 227 261 3,000 -240 Descending Indianapolis Center
07:17PM 39.9931 -82.7378 274° West 209 241 2,900 -360 Descending Indianapolis Center
07:17PM 39.9936 -82.7531 273° West 172 198 2,700 -900 Descending Indianapolis Center
07:18PM 39.9969 -82.7986 275° West 183 211 2,000 -900 Descending Indianapolis Center
07:18PM 39.9964 -82.8133 267° West 162 186 1,800 -720 Descending Indianapolis Center
07:19PM 40.0003 -82.8594 276° West 170 196 1,300 -720 Descending Indianapolis Center
07:19PM 40.0003 -82.8631 270° West 129 148 1,100 -1,380 Descending Indianapolis Center